sensor_id;sensor_type;location;lat;lon;timestamp;P1;durP1;ratioP1;P2;durP2;ratioP2
52508;SDS011;38420;53.150;6.370;2023-07-31T00:00:34;11.80;;;7.85;;
52508;SDS011;38420;53.150;6.370;2023-07-31T00:03:00;10.13;;;7.80;;
52508;SDS011;38420;53.150;6.370;2023-07-31T00:05:25;11.07;;;9.05;;
52508;SDS011;38420;53.150;6.370;2023-07-31T00:07:51;14.25;;;9.00;;
52508;SDS011;38420;53.150;6.370;2023-07-31T00:10:17;12.15;;;9.10;;
52508;SDS011;38420;53.150;6.370;2023-07-31T00:12:43;9.75;;;8.10;;
52508;SDS011;38420;53.150;6.370;2023-07-31T00:15:10;8.98;;;8.07;;
52508;SDS011;38420;53.150;6.370;2023-07-31T00:17:36;12.80;;;7.68;;
52508;SDS011;38420;53.150;6.370;2023-07-31T00:20:02;8.90;;;7.90;;
52508;SDS011;38420;53.150;6.370;2023-07-31T00:22:28;9.45;;;8.45;;
52508;SDS011;38420;53.150;6.370;2023-07-31T00:24:55;9.43;;;8.43;;
52508;SDS011;38420;53.150;6.370;2023-07-31T00:27:22;9.70;;;8.70;;
52508;SDS011;38420;53.150;6.370;2023-07-31T00:29:47;10.23;;;8.77;;
52508;SDS011;38420;53.150;6.370;2023-07-31T00:32:13;11.18;;;8.05;;
52508;SDS011;38420;53.150;6.370;2023-07-31T00:34:38;10.25;;;9.20;;
52508;SDS011;38420;53.150;6.370;2023-07-31T00:37:04;10.20;;;9.18;;
52508;SDS011;38420;53.150;6.370;2023-07-31T00:39:30;11.70;;;9.02;;
52508;SDS011;38420;53.150;6.370;2023-07-31T00:41:56;15.13;;;9.13;;
52508;SDS011;38420;53.150;6.370;2023-07-31T00:44:21;13.77;;;9.57;;
52508;SDS011;38420;53.150;6.370;2023-07-31T00:46:47;11.98;;;9.30;;
52508;SDS011;38420;53.150;6.370;2023-07-31T00:49:13;11.25;;;10.10;;
52508;SDS011;38420;53.150;6.370;2023-07-31T00:51:39;15.43;;;9.40;;
52508;SDS011;38420;53.150;6.370;2023-07-31T00:54:05;11.68;;;9.65;;
52508;SDS011;38420;53.150;6.370;2023-07-31T00:56:31;10.95;;;9.50;;
52508;SDS011;38420;53.150;6.370;2023-07-31T00:58:57;10.82;;;9.65;;
52508;SDS011;38420;53.150;6.370;2023-07-31T01:01:23;11.60;;;9.45;;
52508;SDS011;38420;53.150;6.370;2023-07-31T01:03:49;10.40;;;9.07;;
52508;SDS011;38420;53.150;6.370;2023-07-31T01:08:54;12.27;;;8.50;;
52508;SDS011;38420;53.150;6.370;2023-07-31T01:11:29;11.32;;;9.13;;
52508;SDS011;38420;53.150;6.370;2023-07-31T01:13:58;9.43;;;8.50;;
52508;SDS011;38420;53.150;6.370;2023-07-31T01:16:27;9.35;;;8.45;;
52508;SDS011;38420;53.150;6.370;2023-07-31T01:18:53;9.13;;;8.10;;
52508;SDS011;38420;53.150;6.370;2023-07-31T01:26:30;9.27;;;8.38;;
52508;SDS011;38420;53.150;6.370;2023-07-31T01:29:34;8.93;;;8.03;;
52508;SDS011;38420;53.150;6.370;2023-07-31T01:32:02;10.90;;;8.98;;
52508;SDS011;38420;53.150;6.370;2023-07-31T01:34:31;9.57;;;8.70;;
52508;SDS011;38420;53.150;6.370;2023-07-31T01:36:58;9.05;;;7.85;;
52508;SDS011;38420;53.150;6.370;2023-07-31T01:39:24;8.80;;;7.40;;
52508;SDS011;38420;53.150;6.370;2023-07-31T01:41:50;8.05;;;7.25;;
52508;SDS011;38420;53.150;6.370;2023-07-31T01:44:16;9.43;;;8.20;;
52508;SDS011;38420;53.150;6.370;2023-07-31T01:46:41;9.05;;;7.65;;
52508;SDS011;38420;53.150;6.370;2023-07-31T01:49:07;9.48;;;7.93;;
52508;SDS011;38420;53.150;6.370;2023-07-31T01:51:33;8.85;;;7.93;;
52508;SDS011;38420;53.150;6.370;2023-07-31T01:53:59;8.25;;;7.50;;
52508;SDS011;38420;53.150;6.370;2023-07-31T01:56:26;9.02;;;8.23;;
52508;SDS011;38420;53.150;6.370;2023-07-31T01:58:51;7.65;;;6.85;;
52508;SDS011;38420;53.150;6.370;2023-07-31T02:01:17;7.70;;;6.90;;
52508;SDS011;38420;53.150;6.370;2023-07-31T02:03:42;7.22;;;6.50;;
52508;SDS011;38420;53.150;6.370;2023-07-31T02:06:08;7.82;;;7.00;;
52508;SDS011;38420;53.150;6.370;2023-07-31T02:08:34;6.50;;;5.90;;
52508;SDS011;38420;53.150;6.370;2023-07-31T02:10:59;6.75;;;6.00;;
52508;SDS011;38420;53.150;6.370;2023-07-31T02:13:25;7.10;;;6.40;;
52508;SDS011;38420;53.150;6.370;2023-07-31T02:15:50;7.45;;;6.65;;
52508;SDS011;38420;53.150;6.370;2023-07-31T02:18:16;6.65;;;6.05;;
52508;SDS011;38420;53.150;6.370;2023-07-31T02:20:42;6.63;;;6.03;;
52508;SDS011;38420;53.150;6.370;2023-07-31T02:23:08;6.60;;;5.90;;
52508;SDS011;38420;53.150;6.370;2023-07-31T02:25:33;6.93;;;6.10;;
52508;SDS011;38420;53.150;6.370;2023-07-31T02:27:59;6.35;;;5.72;;
52508;SDS011;38420;53.150;6.370;2023-07-31T02:30:25;6.43;;;5.85;;
52508;SDS011;38420;53.150;6.370;2023-07-31T02:32:50;6.57;;;5.97;;
52508;SDS011;38420;53.150;6.370;2023-07-31T02:35:16;7.40;;;6.07;;
52508;SDS011;38420;53.150;6.370;2023-07-31T02:37:43;7.28;;;6.57;;
52508;SDS011;38420;53.150;6.370;2023-07-31T02:40:09;8.23;;;6.03;;
52508;SDS011;38420;53.150;6.370;2023-07-31T02:42:35;8.57;;;6.85;;
52508;SDS011;38420;53.150;6.370;2023-07-31T02:45:00;7.38;;;6.25;;
52508;SDS011;38420;53.150;6.370;2023-07-31T02:47:26;7.05;;;6.35;;
52508;SDS011;38420;53.150;6.370;2023-07-31T02:49:51;7.78;;;6.63;;
52508;SDS011;38420;53.150;6.370;2023-07-31T02:52:17;7.32;;;6.03;;
52508;SDS011;38420;53.150;6.370;2023-07-31T02:54:43;10.15;;;7.38;;
52508;SDS011;38420;53.150;6.370;2023-07-31T02:57:08;6.88;;;5.80;;
52508;SDS011;38420;53.150;6.370;2023-07-31T02:59:34;8.63;;;6.45;;
52508;SDS011;38420;53.150;6.370;2023-07-31T03:01:59;6.90;;;5.47;;
52508;SDS011;38420;53.150;6.370;2023-07-31T03:04:25;6.32;;;5.70;;
52508;SDS011;38420;53.150;6.370;2023-07-31T03:06:51;8.05;;;6.70;;
52508;SDS011;38420;53.150;6.370;2023-07-31T03:09:16;7.15;;;5.82;;
52508;SDS011;38420;53.150;6.370;2023-07-31T03:11:42;9.52;;;6.18;;
52508;SDS011;38420;53.150;6.370;2023-07-31T03:14:07;6.78;;;5.57;;
52508;SDS011;38420;53.150;6.370;2023-07-31T03:16:33;8.10;;;6.47;;
52508;SDS011;38420;53.150;6.370;2023-07-31T03:18:59;8.57;;;5.30;;
52508;SDS011;38420;53.150;6.370;2023-07-31T03:21:24;6.22;;;5.18;;
52508;SDS011;38420;53.150;6.370;2023-07-31T03:23:50;4.70;;;4.30;;
52508;SDS011;38420;53.150;6.370;2023-07-31T03:26:15;8.00;;;4.90;;
52508;SDS011;38420;53.150;6.370;2023-07-31T03:28:41;6.85;;;5.20;;
52508;SDS011;38420;53.150;6.370;2023-07-31T03:31:07;6.85;;;5.40;;
52508;SDS011;38420;53.150;6.370;2023-07-31T03:33:33;6.45;;;4.72;;
52508;SDS011;38420;53.150;6.370;2023-07-31T03:35:59;6.35;;;5.30;;
52508;SDS011;38420;53.150;6.370;2023-07-31T03:38:24;6.25;;;5.10;;
52508;SDS011;38420;53.150;6.370;2023-07-31T03:40:50;8.38;;;5.22;;
52508;SDS011;38420;53.150;6.370;2023-07-31T03:43:15;6.40;;;4.60;;
52508;SDS011;38420;53.150;6.370;2023-07-31T03:45:41;5.90;;;4.47;;
52508;SDS011;38420;53.150;6.370;2023-07-31T03:48:07;6.55;;;4.75;;
52508;SDS011;38420;53.150;6.370;2023-07-31T03:50:33;5.78;;;5.15;;
52508;SDS011;38420;53.150;6.370;2023-07-31T03:52:58;6.65;;;4.80;;
52508;SDS011;38420;53.150;6.370;2023-07-31T03:55:24;5.47;;;4.85;;
52508;SDS011;38420;53.150;6.370;2023-07-31T03:57:49;5.38;;;4.88;;
52508;SDS011;38420;53.150;6.370;2023-07-31T04:00:15;6.07;;;5.43;;
52508;SDS011;38420;53.150;6.370;2023-07-31T04:02:41;5.28;;;4.78;;
52508;SDS011;38420;53.150;6.370;2023-07-31T04:05:07;7.13;;;3.97;;
52508;SDS011;38420;53.150;6.370;2023-07-31T04:07:32;5.30;;;4.50;;
52508;SDS011;38420;53.150;6.370;2023-07-31T04:09:59;5.63;;;3.80;;
52508;SDS011;38420;53.150;6.370;2023-07-31T04:12:25;7.88;;;4.78;;
52508;SDS011;38420;53.150;6.370;2023-07-31T04:14:50;6.53;;;3.90;;
52508;SDS011;38420;53.150;6.370;2023-07-31T04:17:17;6.50;;;3.65;;
52508;SDS011;38420;53.150;6.370;2023-07-31T04:19:43;6.22;;;4.78;;
52508;SDS011;38420;53.150;6.370;2023-07-31T04:22:10;6.30;;;4.85;;
52508;SDS011;38420;53.150;6.370;2023-07-31T04:24:35;5.10;;;4.68;;
52508;SDS011;38420;53.150;6.370;2023-07-31T04:27:01;6.47;;;4.95;;
52508;SDS011;38420;53.150;6.370;2023-07-31T04:29:27;7.85;;;5.40;;
52508;SDS011;38420;53.150;6.370;2023-07-31T04:31:52;5.82;;;5.22;;
52508;SDS011;38420;53.150;6.370;2023-07-31T04:34:18;6.13;;;5.55;;
52508;SDS011;38420;53.150;6.370;2023-07-31T04:36:43;6.45;;;5.25;;
52508;SDS011;38420;53.150;6.370;2023-07-31T04:39:09;6.80;;;5.80;;
52508;SDS011;38420;53.150;6.370;2023-07-31T04:41:35;6.90;;;6.30;;
52508;SDS011;38420;53.150;6.370;2023-07-31T04:44:00;6.38;;;5.78;;
52508;SDS011;38420;53.150;6.370;2023-07-31T04:46:26;8.23;;;5.95;;
52508;SDS011;38420;53.150;6.370;2023-07-31T04:48:52;6.00;;;5.45;;
52508;SDS011;38420;53.150;6.370;2023-07-31T04:51:17;6.70;;;6.20;;
52508;SDS011;38420;53.150;6.370;2023-07-31T04:53:43;6.25;;;5.70;;
52508;SDS011;38420;53.150;6.370;2023-07-31T04:56:08;5.80;;;4.97;;
52508;SDS011;38420;53.150;6.370;2023-07-31T04:58:34;5.65;;;5.15;;
52508;SDS011;38420;53.150;6.370;2023-07-31T05:01:00;8.20;;;5.05;;
52508;SDS011;38420;53.150;6.370;2023-07-31T05:03:25;6.15;;;4.75;;
52508;SDS011;38420;53.150;6.370;2023-07-31T05:05:51;5.43;;;4.93;;
52508;SDS011;38420;53.150;6.370;2023-07-31T05:08:16;6.10;;;5.10;;
52508;SDS011;38420;53.150;6.370;2023-07-31T05:10:45;6.13;;;4.72;;
52508;SDS011;38420;53.150;6.370;2023-07-31T05:13:11;5.25;;;4.80;;
52508;SDS011;38420;53.150;6.370;2023-07-31T05:15:36;7.65;;;5.97;;
52508;SDS011;38420;53.150;6.370;2023-07-31T05:18:02;6.03;;;5.53;;
52508;SDS011;38420;53.150;6.370;2023-07-31T05:20:27;5.72;;;5.20;;
52508;SDS011;38420;53.150;6.370;2023-07-31T05:22:53;8.82;;;6.03;;
52508;SDS011;38420;53.150;6.370;2023-07-31T05:25:19;7.40;;;6.50;;
52508;SDS011;38420;53.150;6.370;2023-07-31T05:27:44;7.80;;;6.82;;
52508;SDS011;38420;53.150;6.370;2023-07-31T05:30:10;7.93;;;7.13;;
52508;SDS011;38420;53.150;6.370;2023-07-31T05:32:36;7.22;;;6.55;;
52508;SDS011;38420;53.150;6.370;2023-07-31T05:35:01;9.57;;;7.05;;
52508;SDS011;38420;53.150;6.370;2023-07-31T05:37:27;8.30;;;7.50;;
52508;SDS011;38420;53.150;6.370;2023-07-31T05:39:53;8.18;;;7.35;;
52508;SDS011;38420;53.150;6.370;2023-07-31T05:42:18;10.75;;;8.32;;
52508;SDS011;38420;53.150;6.370;2023-07-31T05:44:44;9.43;;;8.25;;
52508;SDS011;38420;53.150;6.370;2023-07-31T05:47:10;8.75;;;7.85;;
52508;SDS011;38420;53.150;6.370;2023-07-31T05:49:35;9.75;;;7.40;;
52508;SDS011;38420;53.150;6.370;2023-07-31T05:52:01;11.75;;;7.32;;
52508;SDS011;38420;53.150;6.370;2023-07-31T05:54:27;9.68;;;6.90;;
52508;SDS011;38420;53.150;6.370;2023-07-31T05:56:52;8.48;;;7.22;;
52508;SDS011;38420;53.150;6.370;2023-07-31T05:59:18;8.73;;;7.47;;
52508;SDS011;38420;53.150;6.370;2023-07-31T06:01:43;12.18;;;8.32;;
52508;SDS011;38420;53.150;6.370;2023-07-31T06:04:09;9.45;;;7.57;;
52508;SDS011;38420;53.150;6.370;2023-07-31T06:06:35;17.38;;;9.65;;
52508;SDS011;38420;53.150;6.370;2023-07-31T06:09:00;14.27;;;9.18;;
52508;SDS011;38420;53.150;6.370;2023-07-31T06:11:26;18.13;;;10.25;;
52508;SDS011;38420;53.150;6.370;2023-07-31T06:13:51;30.55;;;13.70;;
52508;SDS011;38420;53.150;6.370;2023-07-31T06:16:17;21.60;;;12.77;;
52508;SDS011;38420;53.150;6.370;2023-07-31T06:18:43;27.17;;;13.60;;
52508;SDS011;38420;53.150;6.370;2023-07-31T06:21:09;30.63;;;15.10;;
52508;SDS011;38420;53.150;6.370;2023-07-31T06:23:35;30.10;;;15.32;;
52508;SDS011;38420;53.150;6.370;2023-07-31T06:26:01;39.17;;;16.17;;
52508;SDS011;38420;53.150;6.370;2023-07-31T06:28:27;32.50;;;16.88;;
52508;SDS011;38420;53.150;6.370;2023-07-31T06:30:59;33.95;;;15.73;;
52508;SDS011;38420;53.150;6.370;2023-07-31T06:33:25;35.25;;;15.32;;
52508;SDS011;38420;53.150;6.370;2023-07-31T06:35:51;36.65;;;16.15;;
52508;SDS011;38420;53.150;6.370;2023-07-31T06:38:24;29.23;;;14.43;;
52508;SDS011;38420;53.150;6.370;2023-07-31T06:40:51;29.73;;;16.02;;
52508;SDS011;38420;53.150;6.370;2023-07-31T06:43:17;31.83;;;15.35;;
52508;SDS011;38420;53.150;6.370;2023-07-31T06:45:42;29.42;;;14.05;;
52508;SDS011;38420;53.150;6.370;2023-07-31T06:48:08;32.28;;;14.95;;
52508;SDS011;38420;53.150;6.370;2023-07-31T06:50:33;31.00;;;12.63;;
52508;SDS011;38420;53.150;6.370;2023-07-31T06:52:59;30.50;;;12.32;;
52508;SDS011;38420;53.150;6.370;2023-07-31T06:55:25;24.13;;;9.82;;
52508;SDS011;38420;53.150;6.370;2023-07-31T06:57:52;27.05;;;9.98;;
52508;SDS011;38420;53.150;6.370;2023-07-31T07:00:19;23.52;;;10.23;;
52508;SDS011;38420;53.150;6.370;2023-07-31T07:02:46;28.17;;;9.85;;
52508;SDS011;38420;53.150;6.370;2023-07-31T07:05:16;33.45;;;10.35;;
52508;SDS011;38420;53.150;6.370;2023-07-31T07:07:42;23.40;;;7.82;;
52508;SDS011;38420;53.150;6.370;2023-07-31T07:10:08;22.02;;;8.43;;
52508;SDS011;38420;53.150;6.370;2023-07-31T07:12:34;25.30;;;8.32;;
52508;SDS011;38420;53.150;6.370;2023-07-31T07:15:00;19.73;;;7.25;;
52508;SDS011;38420;53.150;6.370;2023-07-31T07:17:27;22.77;;;6.30;;
52508;SDS011;38420;53.150;6.370;2023-07-31T07:19:56;15.88;;;7.57;;
52508;SDS011;38420;53.150;6.370;2023-07-31T07:22:22;20.23;;;8.38;;
52508;SDS011;38420;53.150;6.370;2023-07-31T07:24:48;15.85;;;7.75;;
52508;SDS011;38420;53.150;6.370;2023-07-31T07:27:13;20.20;;;8.70;;
52508;SDS011;38420;53.150;6.370;2023-07-31T07:29:39;20.55;;;9.48;;
52508;SDS011;38420;53.150;6.370;2023-07-31T07:32:05;16.45;;;7.82;;
52508;SDS011;38420;53.150;6.370;2023-07-31T07:34:31;21.42;;;7.32;;
52508;SDS011;38420;53.150;6.370;2023-07-31T07:36:57;17.30;;;7.57;;
52508;SDS011;38420;53.150;6.370;2023-07-31T07:39:22;19.10;;;7.10;;
52508;SDS011;38420;53.150;6.370;2023-07-31T07:41:48;15.18;;;6.70;;
52508;SDS011;38420;53.150;6.370;2023-07-31T07:44:14;16.80;;;6.95;;
52508;SDS011;38420;53.150;6.370;2023-07-31T07:46:39;15.10;;;6.65;;
52508;SDS011;38420;53.150;6.370;2023-07-31T07:49:06;11.15;;;6.10;;
52508;SDS011;38420;53.150;6.370;2023-07-31T07:51:31;9.80;;;5.45;;
52508;SDS011;38420;53.150;6.370;2023-07-31T07:53:58;7.93;;;4.70;;
52508;SDS011;38420;53.150;6.370;2023-07-31T07:56:24;7.32;;;4.28;;
52508;SDS011;38420;53.150;6.370;2023-07-31T07:58:51;7.38;;;3.42;;
52508;SDS011;38420;53.150;6.370;2023-07-31T08:01:17;4.57;;;3.20;;
52508;SDS011;38420;53.150;6.370;2023-07-31T08:03:42;5.30;;;3.10;;
52508;SDS011;38420;53.150;6.370;2023-07-31T08:06:08;5.75;;;2.90;;
52508;SDS011;38420;53.150;6.370;2023-07-31T08:08:35;3.92;;;3.58;;
52508;SDS011;38420;53.150;6.370;2023-07-31T08:11:01;5.13;;;3.30;;
52508;SDS011;38420;53.150;6.370;2023-07-31T08:13:27;4.63;;;4.18;;
52508;SDS011;38420;53.150;6.370;2023-07-31T08:15:52;4.47;;;4.00;;
52508;SDS011;38420;53.150;6.370;2023-07-31T08:18:18;5.32;;;4.07;;
52508;SDS011;38420;53.150;6.370;2023-07-31T08:20:44;6.00;;;4.57;;
52508;SDS011;38420;53.150;6.370;2023-07-31T08:23:10;6.38;;;4.45;;
52508;SDS011;38420;53.150;6.370;2023-07-31T08:25:36;5.80;;;5.10;;
52508;SDS011;38420;53.150;6.370;2023-07-31T08:28:02;5.30;;;4.65;;
52508;SDS011;38420;53.150;6.370;2023-07-31T08:30:28;5.22;;;4.82;;
52508;SDS011;38420;53.150;6.370;2023-07-31T08:32:54;5.22;;;4.72;;
52508;SDS011;38420;53.150;6.370;2023-07-31T08:35:20;5.10;;;4.65;;
52508;SDS011;38420;53.150;6.370;2023-07-31T08:37:45;5.93;;;5.45;;
52508;SDS011;38420;53.150;6.370;2023-07-31T08:40:11;6.82;;;6.43;;
52508;SDS011;38420;53.150;6.370;2023-07-31T08:42:43;6.07;;;5.57;;
52508;SDS011;38420;53.150;6.370;2023-07-31T08:45:12;5.32;;;4.93;;
52508;SDS011;38420;53.150;6.370;2023-07-31T08:47:40;6.53;;;5.88;;
52508;SDS011;38420;53.150;6.370;2023-07-31T08:50:14;5.95;;;5.55;;
52508;SDS011;38420;53.150;6.370;2023-07-31T08:52:41;6.80;;;6.00;;
52508;SDS011;38420;53.150;6.370;2023-07-31T08:55:07;7.05;;;6.57;;
52508;SDS011;38420;53.150;6.370;2023-07-31T08:57:34;5.97;;;5.47;;
52508;SDS011;38420;53.150;6.370;2023-07-31T09:00:02;5.93;;;5.35;;
52508;SDS011;38420;53.150;6.370;2023-07-31T09:02:41;4.68;;;4.28;;
52508;SDS011;38420;53.150;6.370;2023-07-31T09:05:24;5.18;;;4.68;;
52508;SDS011;38420;53.150;6.370;2023-07-31T09:07:52;5.40;;;5.00;;
52508;SDS011;38420;53.150;6.370;2023-07-31T09:10:20;5.75;;;5.35;;
52508;SDS011;38420;53.150;6.370;2023-07-31T09:12:46;5.90;;;5.40;;
52508;SDS011;38420;53.150;6.370;2023-07-31T09:15:12;5.53;;;5.22;;
52508;SDS011;38420;53.150;6.370;2023-07-31T09:17:38;5.28;;;4.97;;
52508;SDS011;38420;53.150;6.370;2023-07-31T09:20:19;5.82;;;5.13;;
52508;SDS011;38420;53.150;6.370;2023-07-31T09:22:46;6.30;;;5.85;;
52508;SDS011;38420;53.150;6.370;2023-07-31T09:25:23;5.80;;;5.40;;
52508;SDS011;38420;53.150;6.370;2023-07-31T09:27:54;5.88;;;5.40;;
52508;SDS011;38420;53.150;6.370;2023-07-31T09:30:22;5.85;;;5.55;;
52508;SDS011;38420;53.150;6.370;2023-07-31T09:32:49;6.15;;;5.85;;
52508;SDS011;38420;53.150;6.370;2023-07-31T09:35:26;5.50;;;5.25;;
52508;SDS011;38420;53.150;6.370;2023-07-31T09:38:00;5.75;;;5.25;;
52508;SDS011;38420;53.150;6.370;2023-07-31T09:40:29;5.07;;;4.78;;
52508;SDS011;38420;53.150;6.370;2023-07-31T09:43:00;5.43;;;5.13;;
52508;SDS011;38420;53.150;6.370;2023-07-31T09:45:28;5.22;;;4.93;;
52508;SDS011;38420;53.150;6.370;2023-07-31T09:47:54;5.20;;;4.53;;
52508;SDS011;38420;53.150;6.370;2023-07-31T09:50:21;5.38;;;5.07;;
52508;SDS011;38420;53.150;6.370;2023-07-31T09:52:48;4.80;;;4.50;;
52508;SDS011;38420;53.150;6.370;2023-07-31T09:55:14;5.15;;;4.85;;
52508;SDS011;38420;53.150;6.370;2023-07-31T09:57:41;6.03;;;5.63;;
52508;SDS011;38420;53.150;6.370;2023-07-31T10:00:11;6.30;;;6.00;;
52508;SDS011;38420;53.150;6.370;2023-07-31T10:02:38;5.18;;;4.70;;
52508;SDS011;38420;53.150;6.370;2023-07-31T10:05:05;4.10;;;3.80;;
52508;SDS011;38420;53.150;6.370;2023-07-31T10:07:32;4.55;;;4.20;;
52508;SDS011;38420;53.150;6.370;2023-07-31T10:10:01;4.03;;;3.83;;
52508;SDS011;38420;53.150;6.370;2023-07-31T10:12:29;4.97;;;4.57;;
52508;SDS011;38420;53.150;6.370;2023-07-31T10:14:58;4.68;;;4.45;;
52508;SDS011;38420;53.150;6.370;2023-07-31T10:17:24;6.78;;;6.13;;
52508;SDS011;38420;53.150;6.370;2023-07-31T10:19:51;5.60;;;5.30;;
52508;SDS011;38420;53.150;6.370;2023-07-31T10:22:18;5.00;;;4.70;;
52508;SDS011;38420;53.150;6.370;2023-07-31T10:24:45;4.97;;;4.68;;
52508;SDS011;38420;53.150;6.370;2023-07-31T10:27:11;5.90;;;5.45;;
52508;SDS011;38420;53.150;6.370;2023-07-31T10:29:38;7.20;;;6.70;;
52508;SDS011;38420;53.150;6.370;2023-07-31T10:32:05;6.95;;;6.65;;
52508;SDS011;38420;53.150;6.370;2023-07-31T10:34:34;7.57;;;7.18;;
52508;SDS011;38420;53.150;6.370;2023-07-31T10:39:55;12.25;;;11.57;;
52508;SDS011;38420;53.150;6.370;2023-07-31T10:42:29;13.70;;;13.02;;
52508;SDS011;38420;53.150;6.370;2023-07-31T10:44:58;10.85;;;10.23;;
52508;SDS011;38420;53.150;6.370;2023-07-31T10:47:25;10.80;;;10.30;;
52508;SDS011;38420;53.150;6.370;2023-07-31T10:49:51;10.52;;;9.93;;
52508;SDS011;38420;53.150;6.370;2023-07-31T10:52:20;6.07;;;5.78;;
52508;SDS011;38420;53.150;6.370;2023-07-31T10:55:12;2.50;;;2.33;;
52508;SDS011;38420;53.150;6.370;2023-07-31T10:57:40;3.83;;;1.00;;
52508;SDS011;38420;53.150;6.370;2023-07-31T11:00:21;1.70;;;1.30;;
52508;SDS011;38420;53.150;6.370;2023-07-31T11:03:04;1.38;;;1.00;;
52508;SDS011;38420;53.150;6.370;2023-07-31T11:10:46;4.07;;;1.38;;
52508;SDS011;38420;53.150;6.370;2023-07-31T11:13:14;2.42;;;2.08;;
52508;SDS011;38420;53.150;6.370;2023-07-31T11:15:39;3.90;;;2.83;;
52508;SDS011;38420;53.150;6.370;2023-07-31T11:18:05;2.90;;;2.63;;
52508;SDS011;38420;53.150;6.370;2023-07-31T11:20:33;2.25;;;1.55;;
52508;SDS011;38420;53.150;6.370;2023-07-31T11:23:03;2.50;;;0.88;;
52508;SDS011;38420;53.150;6.370;2023-07-31T11:25:33;1.98;;;0.93;;
52508;SDS011;38420;53.150;6.370;2023-07-31T11:28:06;1.77;;;0.95;;
52508;SDS011;38420;53.150;6.370;2023-07-31T11:30:33;2.95;;;1.20;;
52508;SDS011;38420;53.150;6.370;2023-07-31T11:33:00;3.00;;;1.45;;
52508;SDS011;38420;53.150;6.370;2023-07-31T11:35:28;1.80;;;1.45;;
52508;SDS011;38420;53.150;6.370;2023-07-31T11:37:58;1.92;;;1.30;;
52508;SDS011;38420;53.150;6.370;2023-07-31T11:40:23;2.78;;;1.45;;
52508;SDS011;38420;53.150;6.370;2023-07-31T11:42:54;3.00;;;1.75;;
52508;SDS011;38420;53.150;6.370;2023-07-31T11:45:26;3.25;;;1.40;;
52508;SDS011;38420;53.150;6.370;2023-07-31T11:47:56;1.60;;;1.08;;
52508;SDS011;38420;53.150;6.370;2023-07-31T11:50:22;3.25;;;1.30;;
52508;SDS011;38420;53.150;6.370;2023-07-31T11:52:51;1.23;;;1.13;;
52508;SDS011;38420;53.150;6.370;2023-07-31T11:55:21;1.53;;;1.07;;
52508;SDS011;38420;53.150;6.370;2023-07-31T11:57:47;6.22;;;2.33;;
52508;SDS011;38420;53.150;6.370;2023-07-31T12:00:13;6.30;;;1.80;;
52508;SDS011;38420;53.150;6.370;2023-07-31T12:02:40;3.55;;;1.75;;
52508;SDS011;38420;53.150;6.370;2023-07-31T12:05:06;3.30;;;1.70;;
52508;SDS011;38420;53.150;6.370;2023-07-31T12:07:43;3.15;;;2.03;;
52508;SDS011;38420;53.150;6.370;2023-07-31T12:10:25;2.95;;;2.25;;
52508;SDS011;38420;53.150;6.370;2023-07-31T12:13:37;4.07;;;2.20;;
52508;SDS011;38420;53.150;6.370;2023-07-31T12:15:48;6.68;;;3.10;;
52508;SDS011;38420;53.150;6.370;2023-07-31T12:18:19;2.47;;;2.27;;
52508;SDS011;38420;53.150;6.370;2023-07-31T12:20:47;2.55;;;2.00;;
52508;SDS011;38420;53.150;6.370;2023-07-31T12:23:18;4.90;;;2.08;;
52508;SDS011;38420;53.150;6.370;2023-07-31T12:25:44;3.42;;;2.08;;
52508;SDS011;38420;53.150;6.370;2023-07-31T12:28:10;7.90;;;2.88;;
52508;SDS011;38420;53.150;6.370;2023-07-31T12:30:39;7.00;;;2.75;;
52508;SDS011;38420;53.150;6.370;2023-07-31T12:33:13;5.53;;;2.78;;
52508;SDS011;38420;53.150;6.370;2023-07-31T12:35:46;5.70;;;3.17;;
52508;SDS011;38420;53.150;6.370;2023-07-31T12:38:12;8.32;;;4.05;;
52508;SDS011;38420;53.150;6.370;2023-07-31T12:40:39;6.63;;;3.95;;
52508;SDS011;38420;53.150;6.370;2023-07-31T12:43:06;7.60;;;3.60;;
52508;SDS011;38420;53.150;6.370;2023-07-31T12:45:32;5.53;;;3.45;;
52508;SDS011;38420;53.150;6.370;2023-07-31T12:47:58;10.82;;;4.07;;
52508;SDS011;38420;53.150;6.370;2023-07-31T12:50:24;8.70;;;3.03;;
52508;SDS011;38420;53.150;6.370;2023-07-31T12:52:50;9.52;;;3.42;;
52508;SDS011;38420;53.150;6.370;2023-07-31T12:55:18;10.10;;;3.30;;
52508;SDS011;38420;53.150;6.370;2023-07-31T12:57:43;8.43;;;3.70;;
52508;SDS011;38420;53.150;6.370;2023-07-31T13:00:09;7.82;;;3.42;;
52508;SDS011;38420;53.150;6.370;2023-07-31T13:02:36;11.30;;;3.50;;
52508;SDS011;38420;53.150;6.370;2023-07-31T13:05:02;8.80;;;3.55;;
52508;SDS011;38420;53.150;6.370;2023-07-31T13:07:27;8.90;;;3.78;;
52508;SDS011;38420;53.150;6.370;2023-07-31T13:09:53;10.50;;;3.67;;
52508;SDS011;38420;53.150;6.370;2023-07-31T13:12:19;12.10;;;3.80;;
52508;SDS011;38420;53.150;6.370;2023-07-31T13:14:44;10.45;;;3.70;;
52508;SDS011;38420;53.150;6.370;2023-07-31T13:17:10;11.07;;;4.43;;
52508;SDS011;38420;53.150;6.370;2023-07-31T13:19:35;9.45;;;3.80;;
52508;SDS011;38420;53.150;6.370;2023-07-31T13:22:01;11.10;;;4.72;;
52508;SDS011;38420;53.150;6.370;2023-07-31T13:24:27;13.38;;;4.75;;
52508;SDS011;38420;53.150;6.370;2023-07-31T13:26:52;8.73;;;4.45;;
52508;SDS011;38420;53.150;6.370;2023-07-31T13:29:18;12.63;;;4.70;;
52508;SDS011;38420;53.150;6.370;2023-07-31T13:31:44;8.80;;;4.07;;
52508;SDS011;38420;53.150;6.370;2023-07-31T13:34:09;7.75;;;4.05;;
52508;SDS011;38420;53.150;6.370;2023-07-31T13:36:35;12.18;;;4.03;;
52508;SDS011;38420;53.150;6.370;2023-07-31T13:39:02;8.88;;;3.97;;
52508;SDS011;38420;53.150;6.370;2023-07-31T13:41:28;14.70;;;4.63;;
52508;SDS011;38420;53.150;6.370;2023-07-31T13:43:53;12.23;;;4.30;;
52508;SDS011;38420;53.150;6.370;2023-07-31T13:46:19;7.20;;;3.83;;
52508;SDS011;38420;53.150;6.370;2023-07-31T13:48:44;7.32;;;3.78;;
52508;SDS011;38420;53.150;6.370;2023-07-31T13:51:10;9.40;;;4.22;;
52508;SDS011;38420;53.150;6.370;2023-07-31T13:53:35;10.10;;;4.43;;
52508;SDS011;38420;53.150;6.370;2023-07-31T13:56:01;9.45;;;3.83;;
52508;SDS011;38420;53.150;6.370;2023-07-31T13:58:27;9.93;;;4.15;;
52508;SDS011;38420;53.150;6.370;2023-07-31T14:00:52;9.60;;;4.20;;
52508;SDS011;38420;53.150;6.370;2023-07-31T14:03:18;9.13;;;3.95;;
52508;SDS011;38420;53.150;6.370;2023-07-31T14:05:44;12.43;;;3.70;;
52508;SDS011;38420;53.150;6.370;2023-07-31T14:08:09;11.80;;;3.75;;
52508;SDS011;38420;53.150;6.370;2023-07-31T14:10:35;8.02;;;3.88;;
52508;SDS011;38420;53.150;6.370;2023-07-31T14:13:00;12.55;;;4.32;;
52508;SDS011;38420;53.150;6.370;2023-07-31T14:15:26;7.85;;;4.18;;
52508;SDS011;38420;53.150;6.370;2023-07-31T14:17:52;8.52;;;3.78;;
52508;SDS011;38420;53.150;6.370;2023-07-31T14:20:18;6.82;;;3.58;;
52508;SDS011;38420;53.150;6.370;2023-07-31T14:22:43;14.13;;;4.28;;
52508;SDS011;38420;53.150;6.370;2023-07-31T14:25:09;9.45;;;3.60;;
52508;SDS011;38420;53.150;6.370;2023-07-31T14:27:35;8.73;;;3.88;;
52508;SDS011;38420;53.150;6.370;2023-07-31T14:30:01;11.25;;;3.35;;
52508;SDS011;38420;53.150;6.370;2023-07-31T14:32:27;7.97;;;4.53;;
52508;SDS011;38420;53.150;6.370;2023-07-31T14:34:53;9.40;;;3.67;;
52508;SDS011;38420;53.150;6.370;2023-07-31T14:37:19;10.43;;;4.53;;
52508;SDS011;38420;53.150;6.370;2023-07-31T14:39:45;9.13;;;4.22;;
52508;SDS011;38420;53.150;6.370;2023-07-31T14:42:10;11.00;;;4.00;;
52508;SDS011;38420;53.150;6.370;2023-07-31T14:44:36;9.48;;;4.03;;
52508;SDS011;38420;53.150;6.370;2023-07-31T14:47:03;10.75;;;4.45;;
52508;SDS011;38420;53.150;6.370;2023-07-31T14:49:29;9.52;;;3.72;;
52508;SDS011;38420;53.150;6.370;2023-07-31T14:51:54;10.95;;;3.92;;
52508;SDS011;38420;53.150;6.370;2023-07-31T14:54:20;10.85;;;4.35;;
52508;SDS011;38420;53.150;6.370;2023-07-31T14:56:46;12.45;;;4.45;;